createdAt,value
2022-10-05T00:01:43.807Z,99.99
2022-10-05T00:06:44.004Z,99.99
2022-10-05T00:11:43.667Z,99.99
2022-10-05T00:16:43.842Z,99.99
2022-10-05T00:21:43.508Z,99.99
2022-10-05T00:26:43.658Z,99.99
2022-10-05T00:31:43.398Z,99.99
2022-10-05T00:36:43.669Z,99.99
2022-10-05T00:41:43.214Z,99.99
2022-10-05T00:46:43.449Z,99.99
2022-10-05T00:51:43.222Z,99.99
2022-10-05T00:56:43.267Z,99.99
2022-10-05T01:01:42.951Z,99.99
2022-10-05T01:06:43.049Z,99.99
2022-10-05T01:11:43.041Z,99.99
2022-10-05T01:16:42.895Z,99.99
2022-10-05T01:21:42.727Z,99.99
2022-10-05T01:26:42.750Z,99.99
2022-10-05T01:31:42.656Z,99.99
2022-10-05T01:36:42.605Z,99.99
2022-10-05T01:41:42.457Z,99.99
2022-10-05T01:46:42.366Z,99.99
2022-10-05T01:51:42.316Z,99.99
2022-10-05T01:56:42.227Z,99.99
2022-10-05T02:01:42.173Z,99.99
2022-10-05T02:06:42.083Z,99.99
2022-10-05T02:11:42.040Z,99.99
2022-10-05T02:16:42.136Z,99.99
2022-10-05T02:21:41.933Z,99.99
2022-10-05T02:26:41.844Z,99.99
2022-10-05T02:31:41.872Z,99.99
2022-10-05T02:36:41.769Z,99.99
2022-10-05T02:41:41.670Z,99.99
2022-10-05T02:46:41.641Z,99.99
2022-10-05T02:51:41.560Z,99.99
2022-10-05T02:56:41.461Z,99.99
2022-10-05T03:01:41.527Z,99.99
2022-10-05T03:06:41.329Z,99.99
2022-10-05T03:11:41.305Z,99.99
2022-10-05T03:16:41.240Z,99.99
2022-10-05T03:21:41.355Z,99.99
2022-10-05T03:26:41.132Z,99.99
2022-10-05T03:31:41.110Z,99.99
2022-10-05T03:36:40.966Z,99.99
2022-10-05T03:41:40.920Z,99.99
2022-10-05T03:46:40.845Z,99.99
2022-10-05T03:51:40.764Z,99.99
2022-10-05T03:56:40.696Z,99.99
2022-10-05T04:01:40.789Z,99.99
2022-10-05T04:06:40.604Z,99.99
2022-10-05T04:11:40.530Z,99.99
2022-10-05T04:16:40.447Z,99.99
2022-10-05T04:21:40.408Z,99.99
2022-10-05T04:26:40.617Z,99.99
2022-10-05T04:31:40.278Z,99.99
2022-10-05T04:36:40.179Z,99.99
2022-10-05T04:41:40.105Z,99.99
2022-10-05T04:46:40.122Z,99.99
2022-10-05T04:51:39.968Z,99.99
2022-10-05T04:56:39.886Z,99.99
2022-10-05T05:01:39.875Z,99.99
2022-10-05T05:06:39.806Z,99.99
2022-10-05T05:11:39.722Z,99.99
2022-10-05T05:16:39.747Z,99.99
2022-10-05T05:21:39.588Z,99.99
2022-10-05T05:26:39.551Z,99.99
2022-10-05T05:31:39.539Z,99.99
2022-10-05T05:36:39.387Z,99.99
2022-10-05T05:41:39.364Z,99.99
2022-10-05T05:47:02.285Z,99.99
2022-10-05T05:51:40.200Z,99.99
2022-10-05T05:56:39.122Z,99.99
2022-10-05T06:01:43.584Z,99.99
2022-10-05T06:06:39.997Z,99.99
2022-10-05T06:11:38.960Z,99.99
2022-10-05T06:16:38.914Z,99.99
2022-10-05T06:21:38.821Z,99.99
2022-10-05T06:26:38.738Z,99.99
2022-10-05T06:31:38.816Z,99.96
2022-10-05T06:36:38.800Z,93.80
2022-10-05T06:41:38.562Z,90.98
2022-10-05T06:46:38.488Z,87.79
2022-10-05T06:51:38.413Z,82.34
2022-10-05T06:56:38.345Z,80.64
2022-10-05T07:01:38.350Z,78.33
2022-10-05T07:06:38.219Z,75.29
2022-10-05T07:11:38.175Z,75.52
2022-10-05T07:16:38.146Z,76.13
2022-10-05T07:21:38.003Z,72.52
2022-10-05T07:26:37.925Z,72.08
2022-10-05T07:31:37.879Z,70.18
2022-10-05T07:36:37.815Z,70.86
2022-10-05T07:41:37.908Z,70.29
2022-10-05T07:46:37.668Z,66.82
2022-10-05T07:51:37.640Z,68.51
2022-10-05T07:56:37.578Z,67.16
2022-10-05T08:01:37.566Z,66.83
2022-10-05T08:06:37.411Z,66.70
2022-10-05T08:11:37.388Z,66.22
2022-10-05T08:16:37.282Z,67.27
2022-10-05T08:21:37.224Z,72.48
2022-10-05T08:26:37.157Z,67.43
2022-10-05T08:31:37.218Z,67.40
2022-10-05T08:36:37.025Z,66.16
2022-10-05T08:41:36.997Z,64.29
2022-10-05T08:46:36.932Z,65.73
2022-10-05T08:51:36.858Z,67.54
2022-10-05T08:56:36.789Z,67.30
2022-10-05T09:01:36.746Z,67.71
2022-10-05T09:06:36.658Z,69.69
2022-10-05T09:11:36.578Z,66.23
2022-10-05T09:16:36.518Z,64.43
2022-10-05T09:21:36.461Z,62.79
2022-10-05T09:26:36.393Z,62.66
2022-10-05T09:31:36.312Z,61.22
2022-10-05T09:36:36.234Z,62.63
2022-10-05T09:41:36.221Z,61.36
2022-10-05T09:46:36.377Z,60.64
2022-10-05T09:51:36.102Z,60.06
2022-10-05T09:56:36.046Z,61.70
2022-10-05T10:01:35.941Z,61.00
2022-10-05T10:06:35.870Z,61.40
2022-10-05T10:11:35.786Z,61.70
2022-10-05T10:16:35.738Z,61.80
2022-10-05T10:21:36.648Z,60.80
2022-10-05T10:26:35.588Z,61.60
2022-10-05T10:31:35.532Z,60.89
2022-10-05T10:36:35.459Z,62.43
2022-10-05T10:41:35.400Z,61.80
2022-10-05T10:46:38.109Z,60.86
2022-10-05T10:51:35.339Z,60.47
2022-10-05T10:56:35.296Z,60.94
2022-10-05T11:01:35.218Z,59.38
2022-10-05T11:06:35.089Z,57.95
2022-10-05T11:11:35.081Z,59.35
2022-10-05T11:16:34.959Z,60.38
2022-10-05T11:21:34.865Z,58.87
2022-10-05T11:26:34.806Z,58.37
2022-10-05T11:31:34.852Z,58.45
2022-10-05T11:36:34.720Z,57.59
2022-10-05T11:41:34.609Z,57.74
2022-10-05T11:46:34.607Z,57.69
2022-10-05T11:51:34.510Z,57.95
2022-10-05T11:56:34.598Z,59.31
2022-10-05T12:01:34.381Z,59.31
2022-10-05T12:06:34.313Z,58.48
2022-10-05T12:11:34.343Z,60.02
2022-10-05T12:16:34.152Z,59.39
2022-10-05T12:21:34.090Z,58.82
2022-10-05T12:26:33.998Z,59.64
2022-10-05T12:31:33.962Z,60.31
2022-10-05T12:36:52.493Z,59.55
2022-10-05T12:41:35.146Z,58.85
2022-10-05T12:46:33.832Z,60.28
2022-10-05T12:51:33.712Z,60.21
2022-10-05T12:56:33.666Z,60.81
2022-10-05T13:01:33.568Z,60.68
2022-10-05T13:06:33.550Z,60.38
2022-10-05T13:11:33.426Z,60.35
2022-10-05T13:16:33.486Z,59.95
2022-10-05T13:21:33.300Z,58.92
2022-10-05T13:26:33.361Z,58.69
2022-10-05T13:31:33.211Z,59.09
2022-10-05T13:36:33.105Z,57.87
2022-10-05T13:41:33.080Z,60.22
2022-10-05T13:46:33.028Z,60.98
2022-10-05T13:51:32.893Z,61.61
2022-10-05T13:56:33.190Z,62.98
2022-10-05T14:01:32.824Z,62.92
2022-10-05T14:06:32.746Z,63.92
2022-10-05T14:11:32.631Z,64.34
2022-10-05T14:16:32.687Z,65.28
2022-10-05T14:21:32.521Z,64.95
2022-10-05T14:26:32.449Z,67.22
2022-10-05T14:31:32.430Z,65.52
2022-10-05T14:36:32.342Z,68.22
2022-10-05T14:41:32.263Z,67.62
2022-10-05T14:46:32.479Z,66.28
2022-10-05T14:51:32.185Z,65.88
2022-10-05T14:56:32.062Z,64.75
2022-10-05T15:01:32.151Z,65.35
2022-10-05T15:06:32.022Z,67.52
2022-10-05T15:11:32.085Z,66.25
2022-10-05T15:16:31.925Z,63.21
2022-10-05T15:21:31.793Z,65.81
2022-10-05T15:26:31.670Z,67.68
2022-10-05T15:31:31.687Z,68.41
2022-10-05T15:36:31.529Z,67.91
2022-10-05T15:41:31.478Z,67.48
2022-10-05T15:46:31.489Z,66.24
2022-10-05T15:51:31.369Z,69.69
2022-10-05T15:56:31.275Z,68.41
2022-10-05T16:01:31.380Z,67.91
2022-10-05T16:06:31.189Z,69.15
2022-10-05T16:11:31.125Z,69.06
2022-10-05T16:16:31.243Z,69.35
2022-10-05T16:21:30.934Z,69.69
2022-10-05T16:26:30.924Z,71.03
2022-10-05T16:31:30.831Z,71.56
2022-10-05T16:36:31.342Z,71.70
2022-10-05T16:41:30.725Z,73.58
2022-10-05T16:46:30.695Z,73.28
2022-10-05T16:51:30.542Z,71.56
2022-10-05T16:56:30.481Z,71.40
2022-10-05T17:01:30.496Z,73.38
2022-10-05T17:06:30.356Z,73.42
2022-10-05T17:11:30.289Z,76.25
2022-10-05T17:16:30.225Z,76.51
2022-10-05T17:21:30.205Z,73.48
2022-10-05T17:26:30.150Z,70.66
2022-10-05T17:31:30.027Z,69.72
2022-10-05T17:36:29.958Z,69.42
2022-10-05T17:41:30.017Z,69.45
2022-10-05T17:46:29.926Z,69.12
2022-10-05T17:51:29.757Z,69.76
2022-10-05T17:56:29.706Z,69.32
2022-10-05T18:01:29.879Z,70.06
2022-10-05T18:06:29.585Z,69.35
2022-10-05T18:11:29.640Z,70.06
2022-10-05T18:16:29.488Z,69.56
2022-10-05T18:21:29.413Z,69.65
2022-10-05T18:26:29.617Z,69.96
2022-10-05T18:31:29.286Z,71.73
2022-10-05T18:36:30.552Z,70.39
2022-10-05T18:41:29.112Z,72.78
2022-10-05T18:46:29.137Z,73.11
2022-10-05T18:51:29.111Z,71.94
2022-10-05T18:56:28.920Z,72.78
2022-10-05T19:01:28.927Z,73.62
2022-10-05T19:06:28.807Z,73.52
2022-10-05T19:11:28.739Z,74.36
2022-10-05T19:16:28.793Z,73.75
2022-10-05T19:21:28.739Z,77.87
2022-10-05T19:26:28.563Z,81.46
2022-10-05T19:31:28.509Z,84.69
2022-10-05T19:36:28.427Z,85.53
2022-10-05T19:41:28.334Z,86.19
2022-10-05T19:46:28.350Z,87.34
2022-10-05T19:51:29.176Z,88.06
2022-10-05T19:56:28.181Z,88.91
2022-10-05T20:01:28.126Z,88.16
2022-10-05T20:06:27.994Z,87.75
2022-10-05T20:11:28.037Z,88.40
2022-10-05T20:16:27.998Z,88.71
2022-10-05T20:21:27.806Z,89.22
2022-10-05T20:26:27.737Z,89.22
2022-10-05T20:31:27.752Z,89.22
2022-10-05T20:36:27.888Z,90.07
2022-10-05T20:41:27.562Z,90.27
2022-10-05T20:46:27.489Z,90.17
2022-10-05T20:51:27.416Z,90.07
2022-10-05T20:56:27.351Z,90.48
2022-10-05T21:01:27.318Z,90.83
2022-10-05T21:06:27.200Z,91.03
2022-10-05T21:11:27.184Z,91.33
2022-10-05T21:16:27.226Z,91.99
2022-10-05T21:21:26.991Z,92.40
2022-10-05T21:26:27.012Z,93.21
2022-10-05T21:31:26.928Z,93.45
2022-10-05T21:36:26.831Z,93.86
2022-10-05T21:41:26.796Z,93.90
2022-10-05T21:46:26.674Z,94.31
2022-10-05T21:51:26.635Z,94.21
2022-10-05T21:56:26.609Z,93.25
2022-10-05T22:01:26.495Z,93.35
2022-10-05T22:06:26.464Z,93.50
2022-10-05T22:11:26.386Z,92.90
2022-10-05T22:16:26.447Z,89.76
2022-10-05T22:21:26.234Z,89.46
2022-10-05T22:26:26.405Z,89.56
2022-10-05T22:31:26.180Z,89.11
2022-10-05T22:36:26.043Z,90.07
2022-10-05T22:41:26.293Z,90.07
2022-10-05T22:46:25.987Z,89.97
2022-10-05T22:51:25.837Z,90.03
2022-10-05T22:56:25.804Z,89.22
2022-10-05T23:01:25.728Z,88.76
2022-10-05T23:06:25.667Z,88.32
2022-10-05T23:11:25.565Z,87.71
2022-10-05T23:16:25.553Z,87.16
2022-10-05T23:21:25.423Z,86.10
2022-10-05T23:26:25.366Z,84.41
2022-10-05T23:31:25.293Z,84.41
2022-10-05T23:36:25.230Z,84.70
2022-10-05T23:41:25.179Z,85.01
2022-10-05T23:46:25.167Z,85.11
2022-10-05T23:51:25.066Z,84.77
2022-10-05T23:56:25.038Z,84.42
